createdAt,value
2022-09-11T00:03:24.694Z,26.09
2022-09-11T00:08:27.695Z,26.11
2022-09-11T00:13:29.557Z,26.09
2022-09-11T00:18:32.013Z,26.07
2022-09-11T00:23:33.816Z,26.06
2022-09-11T00:28:37.297Z,26.09
2022-09-11T00:33:39.710Z,26.14
2022-09-11T00:38:42.925Z,26.07
2022-09-11T00:43:52.233Z,26.03
2022-09-11T00:48:57.418Z,26.02
2022-09-11T00:54:00.829Z,26.01
2022-09-11T00:59:04.348Z,25.99
2022-09-11T01:04:09.451Z,26.00
2022-09-11T01:09:11.376Z,25.97
2022-09-11T01:14:22.323Z,25.99
2022-09-11T01:19:32.855Z,25.98
2022-09-11T01:24:53.513Z,25.94
2022-09-11T01:30:11.473Z,25.98
2022-09-11T01:35:34.839Z,26.02
2022-09-11T01:40:46.059Z,25.92
2022-09-11T01:45:51.842Z,25.89
2022-09-11T01:50:55.764Z,25.96
2022-09-11T01:56:04.312Z,25.94
2022-09-11T02:01:19.336Z,25.93
2022-09-11T02:06:29.778Z,25.93
2022-09-11T02:11:37.391Z,25.93
2022-09-11T02:17:17.063Z,25.93
2022-09-11T02:22:18.794Z,25.86
2022-09-11T02:27:26.185Z,25.90
2022-09-11T02:32:28.105Z,25.92
2022-09-11T02:37:49.519Z,25.92
2022-09-11T02:43:09.464Z,25.95
2022-09-11T02:48:32.901Z,25.87
2022-09-11T02:53:49.917Z,25.91
2022-09-11T02:58:56.902Z,25.91
2022-09-11T03:03:58.662Z,25.90
2022-09-11T03:09:00.477Z,25.86
2022-09-11T03:14:02.262Z,25.88
2022-09-11T03:19:05.054Z,25.87
2022-09-11T03:24:08.325Z,25.85
2022-09-11T03:29:10.112Z,25.85
2022-09-11T03:34:11.831Z,25.83
2022-09-11T03:39:13.631Z,25.84
2022-09-11T03:44:15.648Z,25.87
2022-09-11T03:49:17.573Z,25.87
2022-09-11T03:54:19.446Z,25.87
2022-09-11T03:59:21.777Z,25.82
2022-09-11T04:04:23.804Z,25.88
2022-09-11T04:09:25.587Z,25.76
2022-09-11T04:14:27.374Z,25.76
2022-09-11T04:19:29.701Z,25.73
2022-09-11T04:24:31.649Z,25.74
2022-09-11T04:29:34.498Z,25.80
2022-09-11T04:34:36.218Z,25.79
2022-09-11T04:39:38.057Z,25.78
2022-09-11T04:44:40.057Z,25.87
2022-09-11T04:49:41.744Z,25.72
2022-09-11T04:54:43.484Z,25.79
2022-09-11T04:59:45.233Z,25.74
2022-09-11T05:04:46.989Z,25.83
2022-09-11T05:09:48.766Z,25.83
2022-09-11T05:14:51.421Z,25.80
2022-09-11T05:19:53.102Z,25.74
2022-09-11T05:24:56.351Z,25.86
2022-09-11T05:29:58.144Z,25.75
2022-09-11T05:34:59.985Z,25.78
2022-09-11T05:40:02.086Z,25.84
2022-09-11T05:45:04.068Z,25.80
2022-09-11T05:50:06.312Z,25.72
2022-09-11T05:55:08.508Z,25.74
2022-09-11T06:00:11.033Z,25.81
2022-09-11T06:05:12.824Z,25.78
2022-09-11T06:10:14.766Z,25.72
2022-09-11T06:15:36.249Z,25.74
2022-09-11T06:20:38.417Z,25.73
2022-09-11T06:25:40.305Z,25.74
2022-09-11T06:30:42.255Z,25.68
2022-09-11T06:35:44.130Z,25.60
2022-09-11T06:40:45.922Z,25.59
2022-09-11T06:45:48.590Z,25.56
2022-09-11T06:50:50.425Z,25.54
2022-09-11T06:55:52.367Z,25.55
2022-09-11T07:00:54.398Z,25.58
2022-09-11T07:05:56.443Z,25.55
2022-09-11T07:11:06.279Z,25.52
2022-09-11T07:16:10.721Z,25.50
2022-09-11T07:21:21.898Z,25.52
2022-09-11T07:26:27.045Z,25.65
2022-09-11T07:31:31.387Z,25.77
2022-09-11T07:36:35.148Z,25.79
2022-09-11T07:41:37.241Z,25.80
2022-09-11T07:46:41.701Z,25.72
2022-09-11T07:51:43.959Z,25.71
2022-09-11T07:56:45.774Z,25.79
2022-09-11T08:01:47.449Z,25.81
2022-09-11T08:06:49.373Z,25.79
2022-09-11T08:11:53.557Z,25.69
2022-09-11T08:16:55.416Z,25.72
2022-09-11T08:21:57.218Z,25.70
2022-09-11T08:26:59.386Z,25.76
2022-09-11T08:32:02.475Z,25.79
2022-09-11T08:37:04.597Z,25.74
2022-09-11T08:42:13.926Z,25.80
2022-09-11T08:47:20.772Z,25.85
2022-09-11T08:52:22.792Z,25.81
2022-09-11T08:57:49.413Z,25.74
2022-09-11T09:03:03.291Z,25.61
2022-09-11T09:08:33.354Z,25.67
2022-09-11T09:14:12.383Z,25.57
2022-09-11T09:19:22.532Z,25.48
2022-09-11T09:24:28.022Z,25.61
2022-09-11T09:29:38.108Z,25.72
2022-09-11T09:34:43.245Z,25.76
2022-09-11T09:39:45.804Z,25.79
2022-09-11T09:45:01.515Z,25.82
2022-09-11T09:50:03.871Z,25.85
2022-09-11T09:55:13.805Z,25.55
2022-09-11T10:00:19.893Z,25.85
2022-09-11T10:05:28.063Z,25.72
2022-09-11T10:10:38.297Z,25.77
2022-09-11T10:15:41.131Z,25.84
2022-09-11T10:20:42.925Z,25.80
2022-09-11T10:25:50.123Z,25.76
2022-09-11T10:31:05.018Z,25.88
2022-09-11T10:36:10.293Z,25.89
2022-09-11T10:41:15.431Z,25.98
2022-09-11T10:46:40.429Z,26.02
2022-09-11T10:51:57.381Z,25.96
2022-09-11T10:57:05.641Z,25.99
2022-09-11T11:02:21.055Z,25.97
2022-09-11T11:07:29.904Z,25.97
2022-09-11T11:12:32.919Z,26.01
2022-09-11T11:17:46.578Z,25.91
2022-09-11T11:23:00.232Z,25.94
2022-09-11T11:28:17.274Z,25.92
2022-09-11T11:33:22.309Z,25.95
2022-09-11T11:38:28.446Z,25.89
2022-09-11T11:43:34.566Z,25.96
2022-09-11T11:48:44.919Z,25.94
2022-09-11T11:54:14.365Z,26.05
2022-09-11T12:00:02.950Z,26.03
2022-09-11T12:05:18.920Z,26.06
2022-09-11T12:10:36.199Z,25.98
2022-09-11T12:15:38.701Z,25.86
2022-09-11T12:20:43.076Z,25.70
2022-09-11T12:25:50.642Z,25.71
2022-09-11T12:31:02.545Z,25.82
2022-09-11T12:36:07.202Z,25.85
2022-09-11T12:41:23.040Z,25.63
2022-09-11T12:46:25.451Z,25.83
2022-09-11T12:51:43.292Z,25.79
2022-09-11T12:56:49.714Z,25.67
2022-09-11T13:01:52.677Z,25.50
2022-09-11T13:07:07.673Z,25.24
2022-09-11T13:12:18.994Z,24.93
2022-09-11T13:17:30.741Z,24.74
2022-09-11T13:22:34.923Z,24.94
2022-09-11T13:27:39.408Z,24.94
2022-09-11T13:32:42.168Z,24.72
2022-09-11T13:40:51.286Z,24.97
2022-09-11T13:45:59.147Z,25.20
2022-09-11T13:51:01.221Z,25.68
2022-09-11T13:56:03.080Z,25.81
2022-09-11T14:01:17.317Z,24.91
2022-09-11T14:06:20.788Z,24.80
2022-09-11T14:11:29.896Z,25.34
2022-09-11T14:18:42.987Z,25.30
2022-09-11T14:23:52.637Z,25.50
2022-09-11T14:29:00.228Z,25.52
2022-09-11T14:34:23.462Z,25.47
2022-09-11T14:39:29.814Z,25.83
2022-09-11T14:44:33.068Z,25.90
2022-09-11T14:49:35.124Z,25.81
2022-09-11T14:54:37.173Z,25.95
2022-09-11T14:59:39.139Z,25.95
2022-09-11T15:04:41.441Z,26.01
2022-09-11T15:09:43.643Z,25.88
2022-09-11T15:14:56.660Z,25.90
2022-09-11T15:20:00.658Z,25.87
2022-09-11T15:25:03.870Z,25.88
2022-09-11T15:30:06.104Z,25.82
2022-09-11T15:35:08.241Z,25.94
2022-09-11T15:40:10.912Z,25.89
2022-09-11T15:45:13.890Z,25.47
2022-09-11T15:50:20.263Z,25.75
2022-09-11T15:55:22.412Z,25.85
2022-09-11T16:00:24.055Z,25.66
2022-09-11T16:05:26.145Z,25.68
2022-09-11T16:10:28.110Z,25.82
2022-09-11T16:15:29.955Z,25.87
2022-09-11T16:20:33.434Z,25.93
2022-09-11T16:25:41.389Z,25.92
2022-09-11T16:30:46.554Z,25.79
2022-09-11T16:36:06.033Z,25.83
2022-09-11T16:41:16.806Z,25.69
2022-09-11T16:46:24.437Z,25.90
2022-09-11T16:51:26.596Z,25.87
2022-09-11T16:56:28.504Z,25.90
2022-09-11T17:01:30.651Z,25.91
2022-09-11T17:06:33.071Z,25.89
2022-09-11T17:11:36.557Z,25.93
2022-09-11T17:16:38.997Z,25.93
2022-09-11T17:21:40.950Z,25.86
2022-09-11T17:26:42.889Z,25.91
2022-09-11T17:31:44.763Z,25.93
2022-09-11T17:36:46.675Z,25.85
2022-09-11T17:41:48.874Z,25.87
2022-09-11T17:46:52.526Z,25.85
2022-09-11T17:51:54.783Z,25.84
2022-09-11T17:56:57.982Z,25.87
2022-09-11T18:02:01.305Z,25.87
2022-09-11T18:07:03.973Z,25.77
2022-09-11T18:12:06.178Z,25.87
2022-09-11T18:17:08.002Z,25.88
2022-09-11T18:22:10.293Z,25.79
2022-09-11T18:27:12.678Z,25.85
2022-09-11T18:32:14.549Z,25.82
2022-09-11T18:37:17.525Z,25.81
2022-09-11T18:42:19.234Z,25.87
2022-09-11T18:47:22.294Z,25.85
2022-09-11T18:52:26.286Z,25.84
2022-09-11T18:57:28.740Z,25.85
2022-09-11T19:02:30.579Z,25.86
2022-09-11T19:07:32.642Z,25.79
2022-09-11T19:12:34.607Z,25.77
2022-09-11T19:17:38.281Z,25.81
2022-09-11T19:22:41.103Z,25.80
2022-09-11T19:27:42.966Z,25.79
2022-09-11T19:32:45.062Z,25.81
2022-09-11T19:37:47.510Z,25.83
2022-09-11T19:42:49.341Z,25.78
2022-09-11T19:47:51.502Z,25.82
2022-09-11T19:52:53.562Z,25.75
2022-09-11T19:57:55.534Z,25.78
2022-09-11T20:02:57.932Z,25.80
2022-09-11T20:08:00.534Z,25.75
2022-09-11T20:13:03.461Z,25.75
2022-09-11T20:18:05.641Z,25.72
2022-09-11T20:23:07.886Z,25.74
2022-09-11T20:28:10.846Z,25.77
2022-09-11T20:33:13.488Z,25.76
2022-09-11T20:38:17.727Z,25.73
2022-09-11T20:43:19.487Z,25.79
2022-09-11T20:48:21.521Z,25.74
2022-09-11T20:53:23.438Z,25.68
2022-09-11T20:58:25.340Z,25.53
2022-09-11T21:03:28.120Z,25.51
2022-09-11T21:08:29.936Z,25.48
2022-09-11T21:13:35.395Z,25.48
2022-09-11T21:18:38.344Z,25.51
2022-09-11T21:23:40.270Z,25.51
2022-09-11T21:28:42.818Z,25.52
2022-09-11T21:33:44.996Z,25.47
2022-09-11T21:38:46.832Z,25.49
2022-09-11T21:43:48.811Z,25.50
2022-09-11T21:48:50.716Z,25.58
2022-09-11T21:53:59.194Z,25.51
2022-09-11T21:59:01.305Z,25.46
2022-09-11T22:04:03.352Z,25.45
2022-09-11T22:09:05.147Z,25.44
2022-09-11T22:14:07.048Z,25.47
2022-09-11T22:19:09.678Z,25.46
2022-09-11T22:24:11.523Z,25.46
2022-09-11T22:29:13.422Z,25.46
2022-09-11T22:34:15.193Z,25.46
2022-09-11T22:39:16.899Z,25.46
2022-09-11T22:44:19.906Z,25.45
2022-09-11T22:49:21.633Z,25.44
2022-09-11T22:54:23.419Z,25.44
2022-09-11T22:59:25.458Z,25.39
2022-09-11T23:04:27.337Z,25.39
2022-09-11T23:09:29.135Z,25.37
2022-09-11T23:14:30.978Z,25.43
2022-09-11T23:19:34.579Z,25.41
2022-09-11T23:24:36.287Z,25.38
2022-09-11T23:29:37.989Z,25.37
2022-09-11T23:34:39.880Z,25.40
2022-09-11T23:39:43.271Z,25.40
2022-09-11T23:44:45.191Z,25.37
2022-09-11T23:49:48.142Z,25.35
2022-09-11T23:54:49.907Z,25.37
2022-09-11T23:59:51.751Z,25.32
